sensor_id;sensor_type;location;lat;lon;timestamp;temperature;humidity
7934;DHT22;4012;48.896;9.192;2024-01-15T00:01:36;-1.00;99.90
7934;DHT22;4012;48.896;9.192;2024-01-15T00:04:02;-1.10;99.90
7934;DHT22;4012;48.896;9.192;2024-01-15T00:06:28;-1.10;99.90
7934;DHT22;4012;48.896;9.192;2024-01-15T00:08:54;-1.10;99.90
7934;DHT22;4012;48.896;9.192;2024-01-15T00:11:19;-1.20;99.90
7934;DHT22;4012;48.896;9.192;2024-01-15T00:13:46;-1.30;99.90
7934;DHT22;4012;48.896;9.192;2024-01-15T00:16:11;-1.30;99.90
7934;DHT22;4012;48.896;9.192;2024-01-15T00:18:37;-1.30;99.90
7934;DHT22;4012;48.896;9.192;2024-01-15T00:21:03;-1.30;99.90
7934;DHT22;4012;48.896;9.192;2024-01-15T00:23:28;-1.30;99.90
7934;DHT22;4012;48.896;9.192;2024-01-15T00:25:54;-1.30;99.90
7934;DHT22;4012;48.896;9.192;2024-01-15T00:28:20;-1.30;99.90
7934;DHT22;4012;48.896;9.192;2024-01-15T00:30:45;-1.30;99.90
7934;DHT22;4012;48.896;9.192;2024-01-15T00:33:11;-1.30;99.90
7934;DHT22;4012;48.896;9.192;2024-01-15T00:35:38;-1.40;99.90
7934;DHT22;4012;48.896;9.192;2024-01-15T00:38:03;-1.40;99.90
7934;DHT22;4012;48.896;9.192;2024-01-15T00:40:29;-1.30;99.90
7934;DHT22;4012;48.896;9.192;2024-01-15T00:42:54;-1.30;99.90
7934;DHT22;4012;48.896;9.192;2024-01-15T00:45:20;-1.30;99.90
7934;DHT22;4012;48.896;9.192;2024-01-15T00:47:46;-1.20;99.90
7934;DHT22;4012;48.896;9.192;2024-01-15T00:50:11;-1.20;99.90
7934;DHT22;4012;48.896;9.192;2024-01-15T00:52:37;-1.10;99.90
7934;DHT22;4012;48.896;9.192;2024-01-15T00:55:03;-1.10;99.90
7934;DHT22;4012;48.896;9.192;2024-01-15T00:57:28;-1.10;99.90
7934;DHT22;4012;48.896;9.192;2024-01-15T00:59:54;-1.10;99.90
7934;DHT22;4012;48.896;9.192;2024-01-15T01:02:20;-1.10;99.90
7934;DHT22;4012;48.896;9.192;2024-01-15T01:04:45;-1.00;99.90
7934;DHT22;4012;48.896;9.192;2024-01-15T01:07:11;-1.00;99.90
7934;DHT22;4012;48.896;9.192;2024-01-15T01:09:36;-0.80;99.90
7934;DHT22;4012;48.896;9.192;2024-01-15T01:12:02;-0.80;99.90
7934;DHT22;4012;48.896;9.192;2024-01-15T01:14:27;-0.70;99.90
7934;DHT22;4012;48.896;9.192;2024-01-15T01:16:53;-0.70;99.90
7934;DHT22;4012;48.896;9.192;2024-01-15T01:19:19;-0.60;99.90
7934;DHT22;4012;48.896;9.192;2024-01-15T01:21:44;-0.50;99.90
7934;DHT22;4012;48.896;9.192;2024-01-15T01:24:10;-0.50;99.90
7934;DHT22;4012;48.896;9.192;2024-01-15T01:26:35;-0.40;99.90
7934;DHT22;4012;48.896;9.192;2024-01-15T01:29:01;-0.40;99.90
7934;DHT22;4012;48.896;9.192;2024-01-15T01:31:26;-0.50;99.90
7934;DHT22;4012;48.896;9.192;2024-01-15T01:33:52;-0.40;99.90
7934;DHT22;4012;48.896;9.192;2024-01-15T01:36:17;-0.30;99.90
7934;DHT22;4012;48.896;9.192;2024-01-15T01:38:43;-0.20;99.90
7934;DHT22;4012;48.896;9.192;2024-01-15T01:41:09;-0.20;99.90
7934;DHT22;4012;48.896;9.192;2024-01-15T01:43:35;-0.20;99.90
7934;DHT22;4012;48.896;9.192;2024-01-15T01:46:01;-0.10;99.90
7934;DHT22;4012;48.896;9.192;2024-01-15T01:48:29;-0.10;99.90
7934;DHT22;4012;48.896;9.192;2024-01-15T01:50:59;-0.10;99.90
7934;DHT22;4012;48.896;9.192;2024-01-15T01:53:26;-0.10;99.90
7934;DHT22;4012;48.896;9.192;2024-01-15T01:55:53;0.00;99.90
7934;DHT22;4012;48.896;9.192;2024-01-15T01:58:20;0.00;99.90
7934;DHT22;4012;48.896;9.192;2024-01-15T02:00:47;-0.20;99.90
7934;DHT22;4012;48.896;9.192;2024-01-15T02:03:13;0.00;99.90
7934;DHT22;4012;48.896;9.192;2024-01-15T02:05:39;0.00;99.90
7934;DHT22;4012;48.896;9.192;2024-01-15T02:08:05;0.00;99.90
7934;DHT22;4012;48.896;9.192;2024-01-15T02:10:31;0.00;99.90
7934;DHT22;4012;48.896;9.192;2024-01-15T02:12:57;-0.10;99.90
7934;DHT22;4012;48.896;9.192;2024-01-15T02:15:23;-0.10;99.90
7934;DHT22;4012;48.896;9.192;2024-01-15T02:18:03;-0.10;99.90
7934;DHT22;4012;48.896;9.192;2024-01-15T02:20:30;-0.20;99.90
7934;DHT22;4012;48.896;9.192;2024-01-15T02:23:10;0.00;99.90
7934;DHT22;4012;48.896;9.192;2024-01-15T02:25:44;0.00;99.90
7934;DHT22;4012;48.896;9.192;2024-01-15T02:28:15;0.00;99.90
7934;DHT22;4012;48.896;9.192;2024-01-15T02:30:41;0.00;99.90
7934;DHT22;4012;48.896;9.192;2024-01-15T02:33:08;0.00;99.90
7934;DHT22;4012;48.896;9.192;2024-01-15T02:35:34;0.00;99.90
7934;DHT22;4012;48.896;9.192;2024-01-15T02:38:02;0.00;99.90
7934;DHT22;4012;48.896;9.192;2024-01-15T02:40:28;0.00;99.90
7934;DHT22;4012;48.896;9.192;2024-01-15T02:42:53;0.00;99.90
7934;DHT22;4012;48.896;9.192;2024-01-15T02:45:19;0.00;99.90
7934;DHT22;4012;48.896;9.192;2024-01-15T02:47:45;0.00;99.90
7934;DHT22;4012;48.896;9.192;2024-01-15T02:50:11;-0.10;99.90
7934;DHT22;4012;48.896;9.192;2024-01-15T02:52:36;0.00;99.90
7934;DHT22;4012;48.896;9.192;2024-01-15T02:55:02;0.00;99.90
7934;DHT22;4012;48.896;9.192;2024-01-15T02:57:28;0.10;99.90
7934;DHT22;4012;48.896;9.192;2024-01-15T02:59:53;0.00;99.90
7934;DHT22;4012;48.896;9.192;2024-01-15T03:02:19;0.00;99.90
7934;DHT22;4012;48.896;9.192;2024-01-15T03:04:45;0.10;99.90
7934;DHT22;4012;48.896;9.192;2024-01-15T03:07:10;0.00;99.90
7934;DHT22;4012;48.896;9.192;2024-01-15T03:09:36;0.00;99.90
7934;DHT22;4012;48.896;9.192;2024-01-15T03:12:01;0.00;99.90
7934;DHT22;4012;48.896;9.192;2024-01-15T03:14:27;0.10;99.90
7934;DHT22;4012;48.896;9.192;2024-01-15T03:16:53;0.10;99.90
7934;DHT22;4012;48.896;9.192;2024-01-15T03:19:19;0.20;99.90
7934;DHT22;4012;48.896;9.192;2024-01-15T03:21:44;0.20;99.90
7934;DHT22;4012;48.896;9.192;2024-01-15T03:24:10;0.20;99.90
7934;DHT22;4012;48.896;9.192;2024-01-15T03:26:36;0.10;99.90
7934;DHT22;4012;48.896;9.192;2024-01-15T03:29:01;0.20;99.90
7934;DHT22;4012;48.896;9.192;2024-01-15T03:31:27;0.20;99.90
7934;DHT22;4012;48.896;9.192;2024-01-15T03:33:52;0.20;99.90
7934;DHT22;4012;48.896;9.192;2024-01-15T03:36:18;0.20;99.90
7934;DHT22;4012;48.896;9.192;2024-01-15T03:38:43;0.20;99.90
7934;DHT22;4012;48.896;9.192;2024-01-15T03:41:09;0.30;99.90
7934;DHT22;4012;48.896;9.192;2024-01-15T03:43:35;0.20;99.90
7934;DHT22;4012;48.896;9.192;2024-01-15T03:46:00;0.20;99.90
7934;DHT22;4012;48.896;9.192;2024-01-15T03:48:27;0.20;99.90
7934;DHT22;4012;48.896;9.192;2024-01-15T03:50:53;0.10;99.90
7934;DHT22;4012;48.896;9.192;2024-01-15T03:53:18;0.10;99.90
7934;DHT22;4012;48.896;9.192;2024-01-15T03:55:44;0.30;99.90
7934;DHT22;4012;48.896;9.192;2024-01-15T03:58:09;0.40;99.90
7934;DHT22;4012;48.896;9.192;2024-01-15T04:00:35;0.40;99.90
7934;DHT22;4012;48.896;9.192;2024-01-15T04:03:01;0.40;99.90
7934;DHT22;4012;48.896;9.192;2024-01-15T04:05:26;0.40;99.90
7934;DHT22;4012;48.896;9.192;2024-01-15T04:07:52;0.40;99.90
7934;DHT22;4012;48.896;9.192;2024-01-15T04:10:17;0.50;99.90
7934;DHT22;4012;48.896;9.192;2024-01-15T04:12:43;0.40;99.90
7934;DHT22;4012;48.896;9.192;2024-01-15T04:15:09;0.50;99.90
7934;DHT22;4012;48.896;9.192;2024-01-15T04:17:34;0.60;99.90
7934;DHT22;4012;48.896;9.192;2024-01-15T04:20:00;0.60;99.90
7934;DHT22;4012;48.896;9.192;2024-01-15T04:22:27;0.60;99.90
7934;DHT22;4012;48.896;9.192;2024-01-15T04:24:52;0.50;99.90
7934;DHT22;4012;48.896;9.192;2024-01-15T04:27:18;0.50;99.90
7934;DHT22;4012;48.896;9.192;2024-01-15T04:29:43;0.50;99.90
7934;DHT22;4012;48.896;9.192;2024-01-15T04:32:10;0.60;99.90
7934;DHT22;4012;48.896;9.192;2024-01-15T04:34:35;0.60;99.90
7934;DHT22;4012;48.896;9.192;2024-01-15T04:37:01;0.70;99.90
7934;DHT22;4012;48.896;9.192;2024-01-15T04:39:26;0.70;99.90
7934;DHT22;4012;48.896;9.192;2024-01-15T04:41:52;0.80;99.90
7934;DHT22;4012;48.896;9.192;2024-01-15T04:44:18;0.80;99.90
7934;DHT22;4012;48.896;9.192;2024-01-15T04:46:44;0.70;99.90
7934;DHT22;4012;48.896;9.192;2024-01-15T04:49:11;0.70;99.90
7934;DHT22;4012;48.896;9.192;2024-01-15T04:51:36;0.70;99.90
7934;DHT22;4012;48.896;9.192;2024-01-15T04:54:02;0.80;99.90
7934;DHT22;4012;48.896;9.192;2024-01-15T04:56:28;0.80;99.90
7934;DHT22;4012;48.896;9.192;2024-01-15T04:58:53;0.70;99.90
7934;DHT22;4012;48.896;9.192;2024-01-15T05:01:19;0.80;99.90
7934;DHT22;4012;48.896;9.192;2024-01-15T05:03:44;0.80;99.90
7934;DHT22;4012;48.896;9.192;2024-01-15T05:06:10;0.80;99.90
7934;DHT22;4012;48.896;9.192;2024-01-15T05:08:36;0.90;99.90
7934;DHT22;4012;48.896;9.192;2024-01-15T05:11:01;0.90;99.90
7934;DHT22;4012;48.896;9.192;2024-01-15T05:13:27;1.00;99.90
7934;DHT22;4012;48.896;9.192;2024-01-15T05:15:53;1.00;99.90
7934;DHT22;4012;48.896;9.192;2024-01-15T05:18:19;1.00;99.90
7934;DHT22;4012;48.896;9.192;2024-01-15T05:20:44;1.00;99.90
7934;DHT22;4012;48.896;9.192;2024-01-15T05:23:10;1.10;99.90
7934;DHT22;4012;48.896;9.192;2024-01-15T05:25:35;1.10;99.90
7934;DHT22;4012;48.896;9.192;2024-01-15T05:28:01;1.20;99.90
7934;DHT22;4012;48.896;9.192;2024-01-15T05:30:27;1.20;99.90
7934;DHT22;4012;48.896;9.192;2024-01-15T05:32:53;1.10;99.90
7934;DHT22;4012;48.896;9.192;2024-01-15T05:35:19;1.10;99.90
7934;DHT22;4012;48.896;9.192;2024-01-15T05:37:45;1.10;99.90
7934;DHT22;4012;48.896;9.192;2024-01-15T05:40:12;1.00;99.90
7934;DHT22;4012;48.896;9.192;2024-01-15T05:42:38;1.10;99.90
7934;DHT22;4012;48.896;9.192;2024-01-15T05:45:05;1.20;99.90
7934;DHT22;4012;48.896;9.192;2024-01-15T05:47:31;1.20;99.90
7934;DHT22;4012;48.896;9.192;2024-01-15T05:49:57;1.20;99.90
7934;DHT22;4012;48.896;9.192;2024-01-15T05:52:23;1.10;99.90
7934;DHT22;4012;48.896;9.192;2024-01-15T05:54:49;1.20;99.90
7934;DHT22;4012;48.896;9.192;2024-01-15T05:57:15;1.10;99.90
7934;DHT22;4012;48.896;9.192;2024-01-15T05:59:42;1.10;99.90
7934;DHT22;4012;48.896;9.192;2024-01-15T06:02:08;1.10;99.90
7934;DHT22;4012;48.896;9.192;2024-01-15T06:04:33;1.10;99.90
7934;DHT22;4012;48.896;9.192;2024-01-15T06:06:59;1.10;99.90
7934;DHT22;4012;48.896;9.192;2024-01-15T06:09:24;1.10;99.90
7934;DHT22;4012;48.896;9.192;2024-01-15T06:11:50;1.00;99.90
7934;DHT22;4012;48.896;9.192;2024-01-15T06:14:15;1.00;99.90
7934;DHT22;4012;48.896;9.192;2024-01-15T06:16:41;1.00;99.90
7934;DHT22;4012;48.896;9.192;2024-01-15T06:19:07;1.00;99.90
7934;DHT22;4012;48.896;9.192;2024-01-15T06:21:32;1.00;99.90
7934;DHT22;4012;48.896;9.192;2024-01-15T06:23:58;1.00;99.90
7934;DHT22;4012;48.896;9.192;2024-01-15T06:26:23;1.10;99.90
7934;DHT22;4012;48.896;9.192;2024-01-15T06:28:49;1.10;99.90
7934;DHT22;4012;48.896;9.192;2024-01-15T06:31:15;1.10;99.90
7934;DHT22;4012;48.896;9.192;2024-01-15T06:33:40;1.00;99.90
7934;DHT22;4012;48.896;9.192;2024-01-15T06:36:06;1.10;99.90
7934;DHT22;4012;48.896;9.192;2024-01-15T06:38:32;1.00;99.90
7934;DHT22;4012;48.896;9.192;2024-01-15T06:40:57;1.10;99.90
7934;DHT22;4012;48.896;9.192;2024-01-15T06:43:23;1.20;99.90
7934;DHT22;4012;48.896;9.192;2024-01-15T06:45:49;1.10;99.90
7934;DHT22;4012;48.896;9.192;2024-01-15T06:48:15;1.20;99.90
7934;DHT22;4012;48.896;9.192;2024-01-15T06:50:42;1.20;99.90
7934;DHT22;4012;48.896;9.192;2024-01-15T06:53:08;1.10;99.90
7934;DHT22;4012;48.896;9.192;2024-01-15T06:55:33;1.10;99.90
7934;DHT22;4012;48.896;9.192;2024-01-15T06:57:59;1.20;99.90
7934;DHT22;4012;48.896;9.192;2024-01-15T07:00:25;1.30;99.90
7934;DHT22;4012;48.896;9.192;2024-01-15T07:02:51;1.30;99.90
7934;DHT22;4012;48.896;9.192;2024-01-15T07:05:17;1.30;99.90
7934;DHT22;4012;48.896;9.192;2024-01-15T07:07:42;1.30;99.90
7934;DHT22;4012;48.896;9.192;2024-01-15T07:10:08;1.30;99.90
7934;DHT22;4012;48.896;9.192;2024-01-15T07:12:34;1.30;99.90
7934;DHT22;4012;48.896;9.192;2024-01-15T07:15:00;1.30;99.90
7934;DHT22;4012;48.896;9.192;2024-01-15T07:17:25;1.30;99.90
7934;DHT22;4012;48.896;9.192;2024-01-15T07:19:51;1.30;99.90
7934;DHT22;4012;48.896;9.192;2024-01-15T07:22:16;1.30;99.90
7934;DHT22;4012;48.896;9.192;2024-01-15T07:24:43;1.30;99.90
7934;DHT22;4012;48.896;9.192;2024-01-15T07:27:09;1.40;99.90
7934;DHT22;4012;48.896;9.192;2024-01-15T07:29:35;1.30;99.90
7934;DHT22;4012;48.896;9.192;2024-01-15T07:32:03;1.30;99.90
7934;DHT22;4012;48.896;9.192;2024-01-15T07:34:29;1.30;99.90
7934;DHT22;4012;48.896;9.192;2024-01-15T07:36:55;1.30;99.90
7934;DHT22;4012;48.896;9.192;2024-01-15T07:39:21;1.40;99.90
7934;DHT22;4012;48.896;9.192;2024-01-15T07:41:48;1.40;99.90
7934;DHT22;4012;48.896;9.192;2024-01-15T07:44:14;1.40;99.90
7934;DHT22;4012;48.896;9.192;2024-01-15T07:46:43;1.50;99.90
7934;DHT22;4012;48.896;9.192;2024-01-15T07:49:09;1.40;99.90
7934;DHT22;4012;48.896;9.192;2024-01-15T07:51:34;1.40;99.90
7934;DHT22;4012;48.896;9.192;2024-01-15T07:54:00;1.50;99.90
7934;DHT22;4012;48.896;9.192;2024-01-15T07:56:25;1.50;99.90
7934;DHT22;4012;48.896;9.192;2024-01-15T07:58:52;1.60;99.90
7934;DHT22;4012;48.896;9.192;2024-01-15T08:01:18;1.50;99.90
7934;DHT22;4012;48.896;9.192;2024-01-15T08:03:44;1.50;99.90
7934;DHT22;4012;48.896;9.192;2024-01-15T08:06:09;1.60;99.90
7934;DHT22;4012;48.896;9.192;2024-01-15T08:08:36;1.60;99.90
7934;DHT22;4012;48.896;9.192;2024-01-15T08:11:02;1.70;99.90
7934;DHT22;4012;48.896;9.192;2024-01-15T08:13:27;1.70;99.90
7934;DHT22;4012;48.896;9.192;2024-01-15T08:15:53;1.80;99.90
7934;DHT22;4012;48.896;9.192;2024-01-15T08:18:19;1.80;99.90
7934;DHT22;4012;48.896;9.192;2024-01-15T08:20:47;1.80;99.90
7934;DHT22;4012;48.896;9.192;2024-01-15T08:23:13;1.80;99.90
7934;DHT22;4012;48.896;9.192;2024-01-15T08:25:38;1.70;99.90
7934;DHT22;4012;48.896;9.192;2024-01-15T08:28:04;1.70;99.90
7934;DHT22;4012;48.896;9.192;2024-01-15T08:30:29;1.80;99.90
7934;DHT22;4012;48.896;9.192;2024-01-15T08:32:55;1.80;99.90
7934;DHT22;4012;48.896;9.192;2024-01-15T08:35:21;1.80;99.90
7934;DHT22;4012;48.896;9.192;2024-01-15T08:37:52;1.90;99.90
7934;DHT22;4012;48.896;9.192;2024-01-15T08:40:18;1.70;99.90
7934;DHT22;4012;48.896;9.192;2024-01-15T08:42:44;1.90;99.90
7934;DHT22;4012;48.896;9.192;2024-01-15T08:45:11;2.00;99.90
7934;DHT22;4012;48.896;9.192;2024-01-15T08:47:37;1.90;99.90
7934;DHT22;4012;48.896;9.192;2024-01-15T08:50:03;1.90;99.90
7934;DHT22;4012;48.896;9.192;2024-01-15T08:52:29;1.90;99.90
7934;DHT22;4012;48.896;9.192;2024-01-15T08:54:56;2.10;99.90
7934;DHT22;4012;48.896;9.192;2024-01-15T08:57:22;2.10;99.90
7934;DHT22;4012;48.896;9.192;2024-01-15T08:59:47;2.10;99.90
7934;DHT22;4012;48.896;9.192;2024-01-15T09:02:13;2.30;99.90
7934;DHT22;4012;48.896;9.192;2024-01-15T09:04:39;2.30;99.90
7934;DHT22;4012;48.896;9.192;2024-01-15T09:07:05;2.40;99.90
7934;DHT22;4012;48.896;9.192;2024-01-15T09:09:30;2.40;99.90
7934;DHT22;4012;48.896;9.192;2024-01-15T09:11:56;2.20;99.90
7934;DHT22;4012;48.896;9.192;2024-01-15T09:14:22;2.20;99.90
7934;DHT22;4012;48.896;9.192;2024-01-15T09:16:49;2.20;99.90
7934;DHT22;4012;48.896;9.192;2024-01-15T09:19:15;2.30;99.90
7934;DHT22;4012;48.896;9.192;2024-01-15T09:21:41;2.40;99.90
7934;DHT22;4012;48.896;9.192;2024-01-15T09:24:06;2.60;99.90
7934;DHT22;4012;48.896;9.192;2024-01-15T09:26:32;2.60;99.90
7934;DHT22;4012;48.896;9.192;2024-01-15T09:28:58;2.60;99.90
7934;DHT22;4012;48.896;9.192;2024-01-15T09:31:23;2.60;99.90
7934;DHT22;4012;48.896;9.192;2024-01-15T09:33:49;2.20;99.90
7934;DHT22;4012;48.896;9.192;2024-01-15T09:36:19;2.20;99.90
7934;DHT22;4012;48.896;9.192;2024-01-15T09:38:44;2.10;99.90
7934;DHT22;4012;48.896;9.192;2024-01-15T09:41:10;2.20;99.90
7934;DHT22;4012;48.896;9.192;2024-01-15T09:43:37;2.40;99.90
7934;DHT22;4012;48.896;9.192;2024-01-15T09:46:03;2.30;99.90
7934;DHT22;4012;48.896;9.192;2024-01-15T09:48:29;2.40;99.90
7934;DHT22;4012;48.896;9.192;2024-01-15T09:50:57;2.50;99.90
7934;DHT22;4012;48.896;9.192;2024-01-15T09:53:25;2.50;99.90
7934;DHT22;4012;48.896;9.192;2024-01-15T09:55:51;2.60;99.90
7934;DHT22;4012;48.896;9.192;2024-01-15T09:58:18;2.60;99.90
7934;DHT22;4012;48.896;9.192;2024-01-15T10:00:44;2.70;99.90
7934;DHT22;4012;48.896;9.192;2024-01-15T10:03:13;2.80;99.90
7934;DHT22;4012;48.896;9.192;2024-01-15T10:05:39;2.80;99.90
7934;DHT22;4012;48.896;9.192;2024-01-15T10:08:05;2.80;99.90
7934;DHT22;4012;48.896;9.192;2024-01-15T10:10:31;2.90;99.90
7934;DHT22;4012;48.896;9.192;2024-01-15T10:12:58;2.90;99.90
7934;DHT22;4012;48.896;9.192;2024-01-15T10:15:26;2.80;99.90
7934;DHT22;4012;48.896;9.192;2024-01-15T10:17:52;2.60;99.90
7934;DHT22;4012;48.896;9.192;2024-01-15T10:20:17;2.80;99.90
7934;DHT22;4012;48.896;9.192;2024-01-15T10:22:44;2.90;99.90
7934;DHT22;4012;48.896;9.192;2024-01-15T10:25:12;2.90;99.90
7934;DHT22;4012;48.896;9.192;2024-01-15T10:27:39;2.90;99.90
7934;DHT22;4012;48.896;9.192;2024-01-15T10:30:06;3.00;99.90
7934;DHT22;4012;48.896;9.192;2024-01-15T10:32:32;2.90;99.90
7934;DHT22;4012;48.896;9.192;2024-01-15T10:34:58;2.80;99.90
7934;DHT22;4012;48.896;9.192;2024-01-15T10:37:24;2.70;99.90
7934;DHT22;4012;48.896;9.192;2024-01-15T10:39:50;2.80;99.90
7934;DHT22;4012;48.896;9.192;2024-01-15T10:42:16;2.60;99.90
7934;DHT22;4012;48.896;9.192;2024-01-15T10:44:44;2.70;99.90
7934;DHT22;4012;48.896;9.192;2024-01-15T10:47:10;2.60;99.90
7934;DHT22;4012;48.896;9.192;2024-01-15T10:49:36;2.50;99.90
7934;DHT22;4012;48.896;9.192;2024-01-15T10:52:02;2.70;99.90
7934;DHT22;4012;48.896;9.192;2024-01-15T10:54:29;2.70;99.90
7934;DHT22;4012;48.896;9.192;2024-01-15T10:56:58;2.70;99.90
7934;DHT22;4012;48.896;9.192;2024-01-15T10:59:24;2.70;99.90
7934;DHT22;4012;48.896;9.192;2024-01-15T11:01:53;2.60;99.90
7934;DHT22;4012;48.896;9.192;2024-01-15T11:04:20;2.60;99.90
7934;DHT22;4012;48.896;9.192;2024-01-15T11:06:51;2.60;99.90
7934;DHT22;4012;48.896;9.192;2024-01-15T11:09:17;2.40;99.90
7934;DHT22;4012;48.896;9.192;2024-01-15T11:11:45;2.10;99.90
7934;DHT22;4012;48.896;9.192;2024-01-15T11:14:42;2.00;99.90
7934;DHT22;4012;48.896;9.192;2024-01-15T11:17:11;2.00;99.90
7934;DHT22;4012;48.896;9.192;2024-01-15T11:19:47;2.00;99.90
7934;DHT22;4012;48.896;9.192;2024-01-15T11:24:57;1.70;99.90
7934;DHT22;4012;48.896;9.192;2024-01-15T11:27:46;1.80;99.90
7934;DHT22;4012;48.896;9.192;2024-01-15T11:30:19;1.80;99.90
7934;DHT22;4012;48.896;9.192;2024-01-15T11:32:47;1.80;99.90
7934;DHT22;4012;48.896;9.192;2024-01-15T11:35:14;2.00;99.90
7934;DHT22;4012;48.896;9.192;2024-01-15T11:40:22;2.20;99.90
7934;DHT22;4012;48.896;9.192;2024-01-15T11:42:48;2.20;99.90
7934;DHT22;4012;48.896;9.192;2024-01-15T11:45:19;2.10;99.90
7934;DHT22;4012;48.896;9.192;2024-01-15T11:50:22;2.10;99.90
7934;DHT22;4012;48.896;9.192;2024-01-15T11:53:00;1.90;99.90
7934;DHT22;4012;48.896;9.192;2024-01-15T11:57:57;2.00;99.90
7934;DHT22;4012;48.896;9.192;2024-01-15T12:00:25;1.90;99.90
7934;DHT22;4012;48.896;9.192;2024-01-15T12:02:50;2.00;99.90
7934;DHT22;4012;48.896;9.192;2024-01-15T12:05:18;2.00;99.90
7934;DHT22;4012;48.896;9.192;2024-01-15T12:07:48;2.10;99.90
7934;DHT22;4012;48.896;9.192;2024-01-15T12:10:23;1.90;99.90
7934;DHT22;4012;48.896;9.192;2024-01-15T12:13:00;1.90;99.90
7934;DHT22;4012;48.896;9.192;2024-01-15T12:15:30;1.90;99.90
7934;DHT22;4012;48.896;9.192;2024-01-15T12:17:57;1.90;99.90
7934;DHT22;4012;48.896;9.192;2024-01-15T12:20:26;1.80;99.90
7934;DHT22;4012;48.896;9.192;2024-01-15T12:22:52;1.70;99.90
7934;DHT22;4012;48.896;9.192;2024-01-15T12:25:18;1.80;99.90
7934;DHT22;4012;48.896;9.192;2024-01-15T12:27:44;1.70;99.90
7934;DHT22;4012;48.896;9.192;2024-01-15T12:30:12;1.70;99.90
7934;DHT22;4012;48.896;9.192;2024-01-15T12:32:37;1.70;99.90
7934;DHT22;4012;48.896;9.192;2024-01-15T12:35:03;1.80;99.90
7934;DHT22;4012;48.896;9.192;2024-01-15T12:37:30;1.80;99.90
7934;DHT22;4012;48.896;9.192;2024-01-15T12:39:55;1.90;99.90
7934;DHT22;4012;48.896;9.192;2024-01-15T12:42:21;1.80;99.90
7934;DHT22;4012;48.896;9.192;2024-01-15T12:44:47;1.90;99.90
7934;DHT22;4012;48.896;9.192;2024-01-15T12:47:13;1.90;99.90
7934;DHT22;4012;48.896;9.192;2024-01-15T12:49:39;1.90;99.90
7934;DHT22;4012;48.896;9.192;2024-01-15T12:52:09;2.00;99.90
7934;DHT22;4012;48.896;9.192;2024-01-15T12:54:35;2.00;99.90
7934;DHT22;4012;48.896;9.192;2024-01-15T12:57:01;2.00;99.90
7934;DHT22;4012;48.896;9.192;2024-01-15T12:59:26;1.90;99.90
7934;DHT22;4012;48.896;9.192;2024-01-15T13:01:52;1.90;99.90
7934;DHT22;4012;48.896;9.192;2024-01-15T13:04:24;1.90;99.90
7934;DHT22;4012;48.896;9.192;2024-01-15T13:06:50;1.90;99.90
7934;DHT22;4012;48.896;9.192;2024-01-15T13:09:17;1.90;99.90
7934;DHT22;4012;48.896;9.192;2024-01-15T13:11:46;1.90;99.90
7934;DHT22;4012;48.896;9.192;2024-01-15T13:14:12;1.90;99.90
7934;DHT22;4012;48.896;9.192;2024-01-15T13:16:42;1.80;99.90
7934;DHT22;4012;48.896;9.192;2024-01-15T13:19:10;1.80;99.90
7934;DHT22;4012;48.896;9.192;2024-01-15T13:21:38;1.80;99.90
7934;DHT22;4012;48.896;9.192;2024-01-15T13:24:04;1.80;99.90
7934;DHT22;4012;48.896;9.192;2024-01-15T13:26:32;1.80;99.90
7934;DHT22;4012;48.896;9.192;2024-01-15T13:28:59;1.90;99.90
7934;DHT22;4012;48.896;9.192;2024-01-15T13:31:25;2.00;99.90
7934;DHT22;4012;48.896;9.192;2024-01-15T13:33:50;1.90;99.90
7934;DHT22;4012;48.896;9.192;2024-01-15T13:36:16;1.90;99.90
7934;DHT22;4012;48.896;9.192;2024-01-15T13:38:41;1.90;99.90
7934;DHT22;4012;48.896;9.192;2024-01-15T13:41:08;2.00;99.90
7934;DHT22;4012;48.896;9.192;2024-01-15T13:43:33;2.00;99.90
7934;DHT22;4012;48.896;9.192;2024-01-15T13:45:59;2.00;99.90
7934;DHT22;4012;48.896;9.192;2024-01-15T13:48:25;1.90;99.90
7934;DHT22;4012;48.896;9.192;2024-01-15T13:50:52;1.80;99.90
7934;DHT22;4012;48.896;9.192;2024-01-15T13:53:17;1.80;99.90
7934;DHT22;4012;48.896;9.192;2024-01-15T13:55:44;1.80;99.90
7934;DHT22;4012;48.896;9.192;2024-01-15T13:58:10;1.80;99.90
7934;DHT22;4012;48.896;9.192;2024-01-15T14:00:36;1.90;99.90
7934;DHT22;4012;48.896;9.192;2024-01-15T14:03:02;2.00;99.90
7934;DHT22;4012;48.896;9.192;2024-01-15T14:05:28;1.90;99.90
7934;DHT22;4012;48.896;9.192;2024-01-15T14:07:53;1.90;99.90
7934;DHT22;4012;48.896;9.192;2024-01-15T14:10:19;1.90;99.90
7934;DHT22;4012;48.896;9.192;2024-01-15T14:12:46;1.90;99.90
7934;DHT22;4012;48.896;9.192;2024-01-15T14:15:11;1.80;99.90
7934;DHT22;4012;48.896;9.192;2024-01-15T14:17:37;1.80;99.90
7934;DHT22;4012;48.896;9.192;2024-01-15T14:20:04;1.90;99.90
7934;DHT22;4012;48.896;9.192;2024-01-15T14:22:30;1.80;99.90
7934;DHT22;4012;48.896;9.192;2024-01-15T14:24:56;1.60;99.90
7934;DHT22;4012;48.896;9.192;2024-01-15T14:27:21;1.50;99.90
7934;DHT22;4012;48.896;9.192;2024-01-15T14:29:47;1.50;99.90
7934;DHT22;4012;48.896;9.192;2024-01-15T14:32:13;1.50;99.90
7934;DHT22;4012;48.896;9.192;2024-01-15T14:34:38;1.40;99.90
7934;DHT22;4012;48.896;9.192;2024-01-15T14:37:04;1.40;99.90
7934;DHT22;4012;48.896;9.192;2024-01-15T14:39:29;1.40;99.90
7934;DHT22;4012;48.896;9.192;2024-01-15T14:41:57;1.40;99.90
7934;DHT22;4012;48.896;9.192;2024-01-15T14:44:23;1.50;99.90
7934;DHT22;4012;48.896;9.192;2024-01-15T14:46:49;1.50;99.90
7934;DHT22;4012;48.896;9.192;2024-01-15T14:49:15;1.60;99.90
7934;DHT22;4012;48.896;9.192;2024-01-15T14:51:43;1.50;99.90
7934;DHT22;4012;48.896;9.192;2024-01-15T14:54:10;1.50;99.90
7934;DHT22;4012;48.896;9.192;2024-01-15T14:56:35;1.50;99.90
7934;DHT22;4012;48.896;9.192;2024-01-15T14:59:01;1.60;99.90
7934;DHT22;4012;48.896;9.192;2024-01-15T15:01:26;1.60;99.90
7934;DHT22;4012;48.896;9.192;2024-01-15T15:03:52;1.70;99.90
7934;DHT22;4012;48.896;9.192;2024-01-15T15:06:18;1.60;99.90
7934;DHT22;4012;48.896;9.192;2024-01-15T15:08:44;1.60;99.90
7934;DHT22;4012;48.896;9.192;2024-01-15T15:11:09;1.50;99.90
7934;DHT22;4012;48.896;9.192;2024-01-15T15:13:36;1.60;99.90
7934;DHT22;4012;48.896;9.192;2024-01-15T15:16:02;1.60;99.90
7934;DHT22;4012;48.896;9.192;2024-01-15T15:18:27;1.50;99.90
7934;DHT22;4012;48.896;9.192;2024-01-15T15:20:55;1.50;99.90
7934;DHT22;4012;48.896;9.192;2024-01-15T15:23:21;1.50;99.90
7934;DHT22;4012;48.896;9.192;2024-01-15T15:25:47;1.60;99.90
7934;DHT22;4012;48.896;9.192;2024-01-15T15:28:12;1.60;99.90
7934;DHT22;4012;48.896;9.192;2024-01-15T15:30:39;1.60;99.90
7934;DHT22;4012;48.896;9.192;2024-01-15T15:33:05;1.50;99.90
7934;DHT22;4012;48.896;9.192;2024-01-15T15:35:31;1.50;99.90
7934;DHT22;4012;48.896;9.192;2024-01-15T15:37:56;1.50;99.90
7934;DHT22;4012;48.896;9.192;2024-01-15T15:40:22;1.40;99.90
7934;DHT22;4012;48.896;9.192;2024-01-15T15:42:50;1.40;99.90
7934;DHT22;4012;48.896;9.192;2024-01-15T15:45:15;1.50;99.90
7934;DHT22;4012;48.896;9.192;2024-01-15T15:47:41;1.50;99.90
7934;DHT22;4012;48.896;9.192;2024-01-15T15:50:07;1.50;99.90
7934;DHT22;4012;48.896;9.192;2024-01-15T15:52:33;1.50;99.90
7934;DHT22;4012;48.896;9.192;2024-01-15T15:55:00;1.40;99.90
7934;DHT22;4012;48.896;9.192;2024-01-15T15:57:25;1.30;99.90
7934;DHT22;4012;48.896;9.192;2024-01-15T15:59:52;1.40;99.90
7934;DHT22;4012;48.896;9.192;2024-01-15T16:02:21;1.50;99.90
7934;DHT22;4012;48.896;9.192;2024-01-15T16:04:46;1.50;99.90
7934;DHT22;4012;48.896;9.192;2024-01-15T16:07:12;1.40;99.90
7934;DHT22;4012;48.896;9.192;2024-01-15T16:09:39;1.50;99.90
7934;DHT22;4012;48.896;9.192;2024-01-15T16:12:05;1.40;99.90
7934;DHT22;4012;48.896;9.192;2024-01-15T16:14:31;1.40;99.90
7934;DHT22;4012;48.896;9.192;2024-01-15T16:16:57;1.20;99.90
7934;DHT22;4012;48.896;9.192;2024-01-15T16:19:25;1.10;99.90